Time;durP1;ratioP1;P1;durP2;ratioP2;P2;SDS_P1;SDS_P2;PMS_P1;PMS_P2;Temp;Humidity;BMP_temperature;BMP_pressure;BME280_temperature;BME280_humidity;BME280_pressure;Samples;Min_cycle;Max_cycle;Signal;HPM_P1;HPM_P2
2022/05/17 00:01:45;;;;;;;2.27;1.10;;;;;;;;;;20890961;28;20248;-86
2022/05/17 00:11:51;;;;;;;1.00;0.77;;;;;;;;;;20876583;28;20544;-84
2022/05/17 00:21:52;;;;;;;1.73;1.00;;;20.40;99.90;;;;;;20921005;28;20295;-83
2022/05/17 00:31:54;;;;;;;2.60;1.23;;;;;;;;;;20887364;28;20284;-83
2022/05/17 00:41:56;;;;;;;1.23;0.80;;;;;;;;;;20902371;28;20308;-84
2022/05/17 00:52:02;;;;;;;1.93;1.10;;;20.00;99.90;;;;;;20885443;28;20216;-84
2022/05/17 01:02:06;;;;;;;2.40;1.43;;;;;;;;;;20884255;28;20710;-84
2022/05/17 01:12:08;;;;;;;2.57;1.40;;;19.70;99.90;;;;;;20884513;28;20220;-85
2022/05/17 01:22:10;;;;;;;1.53;1.07;;;;;;;;;;20866703;28;20233;-84
2022/05/17 01:32:15;;;;;;;1.90;0.90;;;;;;;;;;20900094;28;20286;-84
2022/05/17 01:42:17;;;;;;;3.37;1.30;;;;;;;;;;20880952;28;20281;-85
2022/05/17 01:52:19;;;;;;;2.70;1.30;;;;;;;;;;20881027;28;20212;-85
2022/05/17 02:02:20;;;;;;;1.80;1.10;;;;;;;;;;20880536;28;20290;-85
2022/05/17 02:12:22;;;;;;;1.27;1.00;;;;;;;;;;20882026;28;20906;-85
2022/05/17 02:22:24;;;;;;;2.80;1.30;;;;;;;;;;20895910;28;20230;-84
2022/05/17 02:32:25;;;;;;;2.50;1.10;;;;;;;;;;20897460;28;20218;-85
2022/05/17 02:42:27;;;;;;;1.70;1.40;;;;;;;;;;20877993;28;20223;-84
2022/05/17 02:52:29;;;;;;;2.20;1.23;;;;;;;;;;20878096;28;20251;-84
2022/05/17 03:02:30;;;;;;;2.03;1.13;;;;;;;;;;20876580;28;20285;-85
2022/05/17 03:12:32;;;;;;;2.17;1.60;;;;;;;;;;20892119;28;20621;-85
2022/05/17 03:22:34;;;;;;;3.80;1.30;;;;;;;;;;20875392;28;20276;-84
2022/05/17 03:32:38;;;;;;;2.90;1.40;;;;;;;;;;20874226;28;20772;-87
2022/05/17 03:42:41;;;;;;;1.97;1.40;;;;;;;;;;20876026;28;20223;-87
2022/05/17 03:52:44;;;;;;;2.00;1.30;;;;;;;;;;20875448;28;20587;-87
2022/05/17 04:02:46;;;;;;;1.93;1.30;;;;;;;;;;20905866;28;20223;-87
2022/05/17 04:12:48;;;;;;;2.30;1.37;;;;;;;;;;20873744;28;20257;-87
2022/05/17 04:22:52;;;;;;;7.60;2.73;;;;;;;;;;20907060;28;20277;-87
2022/05/17 04:32:53;;;;;;;20.83;3.53;;;;;;;;;;20890010;28;20211;-87
2022/05/17 04:42:57;;;;;;;6.43;2.10;;;;;;;;;;20905904;28;20290;-87
2022/05/17 04:52:59;;;;;;;8.57;2.37;;;;;;;;;;20889251;28;20269;-88
2022/05/17 05:03:06;;;;;;;3.53;1.53;;;;;;;;;;20884048;28;20241;-88
2022/05/17 05:13:19;;;;;;;2.40;1.50;;;;;;;;;;20905123;28;20199;-89
2022/05/17 05:24:04;;;;;;;2.83;1.63;;;18.60;99.90;;;;;;20857554;28;20223;-89
2022/05/17 05:34:15;;;;;;;2.27;1.63;;;;;;;;;;20787831;28;20801;-90
2022/05/17 05:44:18;;;;;;;2.40;1.77;;;;;;;;;;20804709;28;20215;-88
2022/05/17 06:04:33;;;;;;;4.87;2.13;;;;;;;;;;21076916;27;20635;-69
2022/05/17 06:14:36;;;;;;;2.50;1.70;;;;;;;;;;21008635;28;20275;-68
2022/05/17 06:24:38;;;;;;;3.03;2.20;;;;;;;;;;21006514;28;20729;-68
2022/05/17 06:34:40;;;;;;;2.90;1.77;;;;;;;;;;20990574;28;20276;-68
2022/05/17 06:44:42;;;;;;;2.17;1.57;;;;;;;;;;21006224;28;20620;-68
2022/05/17 06:54:44;;;;;;;2.40;1.70;;;20.30;99.90;;;;;;21005335;28;20735;-68
2022/05/17 07:04:48;;;;;;;2.53;1.50;;;;;;;;;;21021955;28;20543;-68
2022/05/17 07:14:51;;;;;;;2.73;1.70;;;;;;;;;;20954196;28;20208;-68
2022/05/17 07:24:53;;;;;;;2.90;1.70;;;;;;;;;;20948207;28;20202;-69
2022/05/17 07:34:55;;;;;;;3.67;2.10;;;;;;;;;;20947317;28;20682;-69
2022/05/17 07:44:57;;;;;;;2.30;1.53;;;;;;;;;;20963217;28;20228;-69
2022/05/17 07:54:59;;;;;;;2.97;1.80;;;;;;;;;;20945648;28;20219;-69
2022/05/17 08:05:02;;;;;;;4.00;1.60;;;;;;;;;;20960094;28;20237;-69
2022/05/17 08:15:05;;;;;;;3.80;2.00;;;;;;;;;;20959963;28;20226;-69
2022/05/17 08:35:28;;;;;;;2.90;1.50;;;;;;;;;;20975404;28;20577;-69
2022/05/17 08:45:40;;;;;;;1.55;1.10;;;22.80;99.90;;;;;;20941420;28;20227;-69
2022/05/17 08:55:43;;;;;;;2.40;1.33;;;23.10;99.90;;;;;;20957251;28;20215;-69
2022/05/17 09:05:49;;;;;;;2.20;1.00;;;;;;;;;;20919938;28;20243;-69
2022/05/17 09:15:53;;;;;;;2.30;0.80;;;;;;;;;;20935202;28;20191;-69
2022/05/17 09:26:01;;;;;;;1.35;0.70;;;;;;;;;;20955281;28;20279;-69
2022/05/17 09:36:03;;;;;;;1.40;0.60;;;;;;;;;;20938214;28;20195;-69
2022/05/17 09:46:11;;;;;;;1.58;0.63;;;;;;;;;;20937373;28;20243;-69
2022/05/17 09:56:16;;;;;;;1.60;0.70;;;24.30;99.90;;;;;;20937546;28;20582;-69
2022/05/17 10:06:29;;;;;;;1.13;0.70;;;;;;;;;;20936487;28;20229;-69
2022/05/17 10:16:31;;;;;;;1.38;0.73;;;;;;;;;;20937374;28;20211;-69
2022/05/17 10:26:34;;;;;;;1.58;0.60;;;;;;;;;;20952326;28;20212;-69
2022/05/17 10:36:36;;;;;;;2.42;0.77;;;;;;;;;;20951596;28;20234;-69
2022/05/17 10:46:39;;;;;;;1.75;1.08;;;25.40;99.90;;;;;;20943701;28;20644;-69
2022/05/17 10:57:04;;;;;;;1.00;0.60;;;25.70;89.40;;;;;;20934031;28;20696;-69
2022/05/17 11:07:19;;;;;;;2.10;1.00;;;;;;;;;;20944322;28;20714;-69
2022/05/17 11:18:06;;;;;;;1.35;0.93;;;26.20;91.40;;;;;;20947185;28;20268;-69
2022/05/17 11:28:08;;;;;;;1.02;0.77;;;;;;;;;;20928076;28;20731;-69
2022/05/17 11:38:18;;;;;;;1.17;0.90;;;26.70;99.00;;;;;;20944327;28;20251;-69
2022/05/17 11:48:23;;;;;;;2.13;0.90;;;26.80;98.80;;;;;;20961030;28;20213;-69
2022/05/17 11:58:29;;;;;;;1.80;0.70;;;;;;;;;;20942992;28;20760;-69
2022/05/17 12:08:32;;;;;;;1.70;0.70;;;;;;;;;;20940544;28;20547;-69
2022/05/17 12:19:00;;;;;;;2.17;0.80;;;;;;;;;;20939103;28;20239;-70
2022/05/17 12:30:53;;;;;;;1.70;0.47;;;;;;;;;;20947366;28;20275;-70
2022/05/17 12:49:52;;;;;;;0.68;0.30;;;27.70;81.00;;;;;;20934964;28;20706;-69
2022/05/17 13:00:10;;;;;;;0.82;0.30;;;27.80;78.10;;;;;;20947455;28;20240;-69
2022/05/17 13:10:13;;;;;;;1.25;0.45;;;;;;;;;;20932092;28;20223;-70
2022/05/17 13:20:30;;;;;;;1.90;0.65;;;;;;;;;;20929554;28;20257;-69
2022/05/17 13:30:42;;;;;;;1.25;0.40;;;;;;;;;;20949156;28;20347;-70
2022/05/17 13:40:56;;;;;;;0.50;0.40;;;28.60;77.10;;;;;;20952385;28;20293;-70
2022/05/17 13:51:00;;;;;;;0.52;0.35;;;28.10;86.70;;;;;;20935746;28;20704;-69
2022/05/17 14:01:21;;;;;;;0.70;0.40;;;;;;;;;;20951987;28;20786;-68
2022/05/17 14:21:47;;;;;;;1.20;0.60;;;;;;;;;;20960192;28;20633;-69
2022/05/17 14:31:51;;;;;;;1.00;0.45;;;;;;;;;;20969105;28;20719;-68
2022/05/17 14:41:54;;;;;;;1.30;0.80;;;29.20;85.00;;;;;;20950559;28;20212;-69
2022/05/17 14:51:57;;;;;;;1.15;0.60;;;;;;;;;;20966425;28;20259;-69
2022/05/17 15:01:59;;;;;;;1.38;0.43;;;;;;;;;;20948771;28;20269;-69
2022/05/17 15:12:01;;;;;;;1.05;0.60;;;;;;;;;;20947703;28;20220;-69
2022/05/17 15:22:05;;;;;;;0.40;0.30;;;28.20;81.10;;;;;;20945953;28;20760;-69
2022/05/17 15:32:09;;;;;;;0.47;0.20;;;28.50;79.10;;;;;;20976877;28;20278;-69
2022/05/17 15:42:11;;;;;;;0.30;0.30;;;;;;;;;;20944932;28;20565;-69
2022/05/17 16:02:36;;;;;;;0.88;0.40;;;;;;;;;;20957015;28;20235;-70
2022/05/17 16:12:38;;;;;;;0.57;0.30;;;;;;;;;;20929763;28;20298;-69
2022/05/17 16:22:46;;;;;;;0.70;0.43;;;28.50;78.70;;;;;;20928037;28;20211;-68
2022/05/17 16:32:48;;;;;;;0.52;0.35;;;;;;;;;;20930851;28;20278;-69
2022/05/17 16:42:50;;;;;;;1.83;0.32;;;;;;;;;;20942330;28;20273;-68
2022/05/17 16:52:53;;;;;;;0.22;0.20;;;;;;;;;;20935644;28;20702;-68
2022/05/17 17:02:54;;;;;;;0.45;0.30;;;;;;;;;;20905917;28;20228;-69
2022/05/17 17:12:56;;;;;;;0.52;0.30;;;;;;;;;;20903016;28;20250;-70
2022/05/17 17:22:58;;;;;;;0.82;0.40;;;;;;;;;;20908871;28;20247;-70
2022/05/17 17:43:26;;;;;;;1.02;0.30;;;27.00;88.60;;;;;;20932851;28;20280;-69
2022/05/17 17:53:34;;;;;;;0.80;0.50;;;;;;;;;;20970416;28;20212;-70
2022/05/17 18:03:36;;;;;;;0.75;0.45;;;;;;;;;;20919936;28;20662;-69
2022/05/17 18:13:50;;;;;;;0.70;0.45;;;26.80;90.90;;;;;;20866412;23;20696;-73
2022/05/17 18:23:52;;;;;;;0.80;0.43;;;;;;;;;;20890069;28;20211;-74
2022/05/17 18:33:54;;;;;;;0.73;0.45;;;;;;;;;;20881013;28;20265;-75
2022/05/17 18:43:56;;;;;;;0.73;0.40;;;;;;;;;;20875638;28;20585;-76
2022/05/17 18:53:58;;;;;;;0.65;0.40;;;;;;;;;;20863207;28;20228;-75
2022/05/17 19:04:00;;;;;;;0.70;0.40;;;;;;;;;;20861878;28;20205;-73
2022/05/17 19:14:04;;;;;;;0.50;0.38;;;;;;;;;;20902520;28;20313;-75
2022/05/17 19:24:08;;;;;;;2.80;0.57;;;;;;;;;;20947998;28;20682;-75
2022/05/17 19:34:24;;;;;;;0.93;0.50;;;26.00;95.30;;;;;;20928640;28;20580;-72
2022/05/17 19:44:25;;;;;;;1.05;0.50;;;;;;;;;;20925172;28;20595;-73
2022/05/17 19:54:28;;;;;;;1.10;0.57;;;;;;;;;;20922605;28;20269;-76
2022/05/17 20:04:35;;;;;;;2.65;0.80;;;;;;;;;;20880926;28;20221;-75
2022/05/17 20:14:37;;;;;;;1.08;0.55;;;;;;;;;;20856511;28;20229;-76
2022/05/17 20:24:45;;;;;;;4.18;0.60;;;;;;;;;;20802998;28;20218;-76
2022/05/17 20:34:48;;;;;;;1.58;0.70;;;;;;;;;;20808401;28;20232;-73
2022/05/17 20:44:51;;;;;;;1.23;0.60;;;;;;;;;;20805770;28;20331;-74
2022/05/17 20:54:53;;;;;;;3.40;1.02;;;;;;;;;;20885012;28;20338;-73
2022/05/17 21:04:56;;;;;;;3.00;0.98;;;;;;;;;;20857586;28;20210;-75
2022/05/17 21:14:57;;;;;;;1.08;0.63;;;24.60;98.90;;;;;;20881305;28;20305;-73
2022/05/17 21:24:59;;;;;;;1.05;0.68;;;;;;;;;;20904059;28;20560;-73
2022/05/17 21:35:01;;;;;;;3.40;1.05;;;;;;;;;;20902796;28;20694;-74
2022/05/17 21:45:06;;;;;;;4.63;1.02;;;;;;;;;;20902067;28;20232;-73
2022/05/17 21:55:08;;;;;;;2.33;0.93;;;24.00;99.90;;;;;;20901388;28;20301;-73
2022/05/17 22:05:10;;;;;;;2.47;0.60;;;;;;;;;;20900389;28;20226;-75
2022/05/17 22:15:12;;;;;;;4.03;0.80;;;;;;;;;;20902120;28;20223;-72
2022/05/17 22:25:22;;;;;;;2.53;0.90;;;23.90;99.90;;;;;;20898996;28;20203;-72
2022/05/17 22:35:23;;;;;;;2.75;0.60;;;;;;;;;;20901805;28;20211;-74
2022/05/17 22:55:45;;;;;;;1.35;0.80;;;;;;;;;;20914163;28;20780;-72
2022/05/17 23:05:47;;;;;;;2.30;0.80;;;;;;;;;;20914489;28;20214;-72
2022/05/17 23:15:49;;;;;;;2.42;0.90;;;;;;;;;;20907929;28;20225;-72
2022/05/17 23:36:12;;;;;;;1.08;0.60;;;23.10;99.90;;;;;;20911545;28;20716;-73
2022/05/17 23:46:14;;;;;;;1.42;0.60;;;;;;;;;;20910895;28;20271;-73
2022/05/17 23:56:16;;;;;;;1.05;0.55;;;;;;;;;;20911807;28;20248;-72
